Time;durP1;ratioP1;P1;durP2;ratioP2;P2;SDS_P1;SDS_P2;PMS_P1;PMS_P2;Temp;Humidity;BMP_temperature;BMP_pressure;BME280_temperature;BME280_humidity;BME280_pressure;Samples;Min_cycle;Max_cycle;Signal;HPM_P1;HPM_P2
2022/06/12 00:01:10;;;;;;;3.37;2.98;;;;;;;26.79;51.98;100961.02;1742927;81;21609;-49
2022/06/12 00:03:37;;;;;;;5.65;3.37;;;;;;;26.77;51.93;100949.63;1755960;81;20987;-49
2022/06/12 00:06:05;;;;;;;3.47;3.17;;;;;;;26.76;52.19;100949.77;1755682;81;21038;-50
2022/06/12 00:08:34;;;;;;;4.15;3.75;;;;;;;26.73;52.44;100943.38;1755530;81;21554;-48
2022/06/12 00:11:02;;;;;;;4.15;3.75;;;;;;;26.71;52.39;100943.97;1754888;81;21510;-51
2022/06/12 00:13:33;;;;;;;4.78;3.40;;;;;;;26.70;52.49;100929.77;1755004;81;21045;-51
2022/06/12 00:16:01;;;;;;;3.80;3.50;;;;;;;26.69;52.26;100938.73;1695101;84;21078;-50
2022/06/12 00:18:29;;;;;;;3.90;3.55;;;;;;;26.67;52.29;100937.20;1694899;84;21138;-50
2022/06/12 00:21:11;;;;;;;4.25;3.50;;;;;;;26.65;52.41;100931.97;1694091;84;21093;-48
2022/06/12 00:23:50;;;;;;;3.83;3.37;;;;;;;26.62;52.60;100929.58;1689498;84;21095;-49
2022/06/12 00:26:22;;;;;;;4.28;3.87;;;;;;;26.63;52.39;100927.77;1686209;84;21169;-53
2022/06/12 00:28:57;;;;;;;3.58;3.27;;;;;;;26.61;52.37;100927.87;1601415;89;21142;-48
2022/06/12 00:31:24;;;;;;;6.50;3.50;;;;;;;26.59;52.29;100924.48;1598041;89;21131;-51
2022/06/12 00:33:51;;;;;;;3.85;3.50;;;;;;;26.55;52.19;100925.73;1601623;89;21071;-50
2022/06/12 00:36:17;;;;;;;3.92;3.52;;;;;;;26.52;52.24;100926.00;1601766;89;21127;-53
2022/06/12 00:38:44;;;;;;;3.77;3.47;;;;;;;26.49;52.27;100919.58;1590597;89;21031;-51
2022/06/12 00:41:11;;;;;;;5.92;3.65;;;;;;;26.47;52.39;100920.20;1601619;89;21134;-49
2022/06/12 00:43:38;;;;;;;3.80;3.50;;;;;;;26.45;52.66;100922.16;1602277;89;21108;-51
2022/06/12 00:46:07;;;;;;;3.83;3.52;;;;;;;26.44;52.59;100915.96;1601575;89;21032;-51
2022/06/12 00:48:37;;;;;;;3.40;3.10;;;;;;;26.42;52.73;100915.76;1601802;89;21562;-51
2022/06/12 00:51:17;;;;;;;3.80;3.50;;;;;;;26.42;52.87;100917.09;1601812;89;21099;-50
2022/06/12 00:53:54;;;;;;;3.47;3.17;;;;;;;26.43;52.80;100913.44;1597895;89;21059;-52
2022/06/12 00:56:29;;;;;;;4.65;3.67;;;;;;;26.44;52.59;100917.81;1543938;92;21112;-49
2022/06/12 00:59:09;;;;;;;3.37;3.10;;;;;;;26.44;52.49;100917.81;1519635;93;21446;-49
2022/06/12 01:01:46;;;;;;;3.52;3.22;;;;;;;26.45;52.43;100908.81;1495957;95;21636;-49
2022/06/12 01:07:03;;;;;;;3.72;3.42;;;;;;;26.51;52.11;100913.62;1499438;95;21193;-50
2022/06/12 01:09:35;;;;;;;3.95;3.50;;;;;;;26.53;51.93;100913.00;1502830;95;21151;-49
2022/06/12 01:12:03;;;;;;;3.85;3.17;;;;;;;26.55;51.77;100901.70;1504300;93;21101;-49
2022/06/12 01:14:35;;;;;;;3.52;3.22;;;;;;;26.55;51.63;100902.56;1523895;93;21079;-49
2022/06/12 01:17:04;;;;;;;3.98;3.58;;;;;;;26.56;51.57;100907.42;1523417;93;21111;-51
2022/06/12 01:19:41;;;;;;;3.50;3.20;;;;;;;26.56;51.75;100911.42;1525175;93;21062;-50
2022/06/12 01:22:26;;;;;;;5.45;3.12;;;;;;;26.57;52.05;100918.44;1501773;94;21118;-50
2022/06/12 01:25:24;;;;;;;3.98;3.47;;;;;;;26.55;52.53;100915.05;1517714;92;21085;-50
2022/06/12 01:28:22;;;;;;;3.37;3.08;;;;;;;26.52;52.62;100911.33;1472121;96;21652;-49
2022/06/12 01:31:18;;;;;;;4.50;3.30;;;;;;;26.47;52.51;100909.53;1476676;96;21156;-50
2022/06/12 01:34:18;;;;;;;4.65;3.65;;;;;;;26.42;52.53;100909.09;1501362;94;21145;-52
2022/06/12 01:37:06;;;;;;;3.85;3.42;;;;;;;26.38;53.00;100907.63;1479415;95;21147;-51
2022/06/12 01:39:38;;;;;;;3.58;3.27;;;;;;;26.35;53.14;100910.57;1478928;95;21155;-51
2022/06/12 01:42:40;;;;;;;4.47;3.87;;;;;;;26.31;53.01;100912.66;1482096;95;21107;-49
2022/06/12 01:45:21;;;;;;;5.42;3.27;;;;;;;26.26;53.11;100906.86;1482062;95;21110;-49
2022/06/12 01:48:19;;;;;;;4.75;4.35;;;;;;;26.24;53.15;100896.80;1480945;95;21168;-49
2022/06/12 01:51:14;;;;;;;3.65;3.35;;;;;;;26.22;53.12;100903.23;1453487;97;21106;-55
2022/06/12 01:54:10;;;;;;;4.60;3.35;;;;;;;26.20;53.36;100898.52;1502975;95;21074;-49
2022/06/12 01:57:07;;;;;;;3.65;3.25;;;;;;;26.17;53.58;100896.12;1481040;96;21127;-51
2022/06/12 01:59:49;;;;;;;4.30;3.60;;;;;;;26.17;53.58;100896.12;1476535;96;21111;-51
2022/06/12 02:02:33;;;;;;;3.72;3.40;;;;;;;26.18;53.54;100895.14;1562414;91;21106;-48
2022/06/12 02:05:22;;;;;;;3.72;3.40;;;;;;;26.17;53.70;100892.13;1543216;93;21094;-49
2022/06/12 02:08:03;;;;;;;3.70;3.42;;;;;;;26.17;53.71;100901.47;1547297;93;21578;-50
2022/06/12 02:10:42;;;;;;;4.62;3.30;;;;;;;26.17;53.77;100907.63;1547115;93;21133;-49
2022/06/12 02:13:21;;;;;;;3.52;3.22;;;;;;;26.19;54.07;100906.18;1544749;93;21095;-50
2022/06/12 02:16:04;;;;;;;3.72;3.42;;;;;;;26.19;54.07;100906.18;1507157;94;21109;-50
2022/06/12 02:18:42;;;;;;;3.80;3.50;;;;;;;26.19;54.05;100907.52;1520053;93;21573;-49
2022/06/12 02:21:29;;;;;;;3.45;3.15;;;;;;;26.20;54.12;100906.52;1536719;92;21089;-49
2022/06/12 02:24:07;;;;;;;4.28;3.90;;;;;;;26.18;54.03;100909.33;1533728;92;21109;-54
2022/06/12 02:26:43;;;;;;;3.60;3.30;;;;;;;26.18;54.03;100909.33;1519410;93;21102;-51
2022/06/12 02:29:20;;;;;;;4.95;3.47;;;;;;;26.20;54.25;100907.38;1467606;97;21603;-50
2022/06/12 02:31:51;;;;;;;3.75;3.37;;;;;;;26.21;53.77;100910.90;1468391;97;21261;-50
2022/06/12 02:34:24;;;;;;;4.15;3.60;;;;;;;26.22;53.95;100904.09;1512163;94;21158;-50
2022/06/12 02:36:59;;;;;;;4.05;3.65;;;;;;;26.22;54.04;100912.58;1512104;94;21169;-49
2022/06/12 02:39:38;;;;;;;3.35;3.05;;;;;;;26.23;54.03;100916.95;1480762;95;21120;-48
2022/06/12 02:42:19;;;;;;;3.52;3.22;;;;;;;26.22;53.86;100913.42;1429231;99;21129;-50
2022/06/12 02:44:55;;;;;;;3.87;3.40;;;;;;;26.22;53.86;100913.42;1412825;100;21109;-49
2022/06/12 02:47:26;;;;;;;5.45;3.70;;;;;;;26.22;53.85;100911.23;1415895;97;21091;-51
2022/06/12 02:49:53;;;;;;;3.80;3.47;;;;;;;26.19;54.03;100905.70;1429804;99;21169;-50
2022/06/12 02:52:25;;;;;;;4.25;3.47;;;;;;;26.18;53.90;100912.47;1459870;97;21127;-52
2022/06/12 02:55:30;;;;;;;4.47;4.08;;;;;;;26.21;53.92;100912.23;1448739;99;21692;-49
2022/06/12 02:58:35;;;;;;;3.67;3.37;;;;;;;26.21;53.92;100912.23;1423911;100;21724;-50
2022/06/12 03:01:07;;;;;;;3.50;3.20;;;;;;;26.22;53.87;100920.58;1424454;101;21172;-53
2022/06/12 03:04:06;;;;;;;5.20;3.50;;;;;;;26.24;53.86;100924.81;1424618;101;21582;-50
2022/06/12 03:06:34;;;;;;;4.40;3.50;;;;;;;26.23;54.13;100922.28;1388912;103;21101;-51
2022/06/12 03:09:02;;;;;;;5.65;3.62;;;;;;;26.23;54.13;100922.28;1433243;99;21157;-51
2022/06/12 03:11:37;;;;;;;3.58;3.27;;;;;;;26.22;53.75;100924.09;1440144;99;21141;-54
2022/06/12 03:14:10;;;;;;;3.58;3.27;;;;;;;26.28;53.77;100925.39;1422899;99;21209;-51
2022/06/12 03:16:41;;;;;;;4.47;3.80;;;;;;;26.26;54.01;100927.34;1397483;100;21300;-52
2022/06/12 03:19:12;;;;;;;4.10;3.60;;;;;;;26.26;54.01;100927.34;1405386;102;21600;-51
2022/06/12 03:22:07;;;;;;;;;;;;;;;26.24;53.87;100919.95;1432807;100;21148;-51
2022/06/12 03:25:15;;;;;;;3.85;3.52;;;;;;;26.22;53.67;100919.24;1432577;100;20161;-51
2022/06/12 03:27:55;;;;;;;3.92;3.33;;;;;;;26.17;53.61;100914.80;1497511;96;21202;-50
2022/06/12 03:30:35;;;;;;;3.77;3.35;;;;;;;26.16;53.70;100925.09;1497645;96;21078;-53
2022/06/12 03:33:38;;;;;;;3.80;3.50;;;;;;;26.14;53.76;100928.37;1471408;97;21100;-50
2022/06/12 03:36:13;;;;;;;5.12;3.92;;;;;;;26.15;53.54;100923.41;1495133;96;21638;-51
2022/06/12 03:39:00;;;;;;;3.20;3.00;;;;;;;26.14;53.54;100921.23;1470736;97;21116;-51
2022/06/12 03:41:44;;;;;;;3.33;3.02;;;;;;;26.14;53.48;100920.38;1472504;97;21208;-50
2022/06/12 03:44:19;;;;;;;3.80;3.35;;;;;;;26.18;53.88;100927.14;1485333;96;21095;-52
2022/06/12 03:47:04;;;;;;;4.22;3.75;;;;;;;26.20;54.70;100922.52;1535333;93;21101;-49
2022/06/12 03:49:54;;;;;;;4.78;4.30;;;;;;;26.20;54.70;100922.52;1532178;93;21088;-50
2022/06/12 03:52:58;;;;;;;3.67;3.37;;;;;;;26.23;54.79;100919.62;1524050;94;21131;-50
2022/06/12 03:58:31;;;;;;;4.10;3.55;;;;;;;26.30;54.57;100916.30;1528140;92;21044;-50
2022/06/12 04:00:58;;;;;;;4.08;3.65;;;;;;;26.33;54.58;100915.19;1548382;93;21079;-52
2022/06/12 04:03:30;;;;;;;5.03;3.45;;;;;;;26.37;54.43;100921.96;1583755;89;21112;-50
2022/06/12 04:06:02;;;;;;;4.00;3.70;;;;;;;26.40;54.27;100919.02;1565845;90;21130;-50
2022/06/12 04:08:36;;;;;;;5.28;3.75;;;;;;;26.43;54.14;100922.77;1540787;92;21640;-51
2022/06/12 04:11:06;;;;;;;4.17;3.85;;;;;;;26.44;53.89;100916.47;1430239;97;21297;-53
2022/06/12 04:13:35;;;;;;;4.15;3.72;;;;;;;26.51;53.28;100918.96;1449129;99;21124;-51
2022/06/12 04:16:25;;;;;;;3.70;3.20;;;;;;;26.51;53.28;100918.96;1450255;97;21120;-50
2022/06/12 04:18:53;;;;;;;3.62;3.33;;;;;;;26.63;52.39;100918.42;1422652;100;21137;-52
2022/06/12 04:21:39;;;;;;;7.17;4.12;;;;;;;26.63;52.39;100918.42;1418125;100;21601;-52
2022/06/12 04:24:22;;;;;;;4.45;4.00;;;;;;;26.66;52.41;100920.33;1417841;100;21193;-49
2022/06/12 04:26:57;;;;;;;4.70;3.35;;;;;;;26.70;52.23;100919.08;1405174;101;21197;-56
2022/06/12 04:29:28;;;;;;;4.00;3.47;;;;;;;26.72;52.08;100913.16;1405197;101;21120;-52
2022/06/12 04:31:58;;;;;;;4.75;3.50;;;;;;;26.77;51.92;100919.44;1329708;107;21176;-49
2022/06/12 04:34:34;;;;;;;4.08;3.55;;;;;;;26.79;51.96;100918.30;1330264;107;21293;-55
2022/06/12 04:37:05;;;;;;;4.12;3.60;;;;;;;26.84;52.06;100913.42;1321369;107;21204;-50
2022/06/12 04:39:35;;;;;;;5.47;3.80;;;;;;;26.89;51.95;100912.55;1275787;112;21196;-51
2022/06/12 04:42:03;;;;;;;5.33;3.17;;;;;;;26.92;51.84;100918.94;1279267;112;21226;-51
2022/06/12 04:44:30;;;;;;;4.53;3.60;;;;;;;26.96;51.69;100916.84;1293306;109;21198;-51
2022/06/12 04:46:58;;;;;;;3.70;3.30;;;;;;;27.00;51.82;100913.77;1309135;109;21329;-51
2022/06/12 04:49:28;;;;;;;3.95;3.37;;;;;;;27.07;51.82;100911.41;1309267;109;21214;-50
2022/06/12 04:51:57;;;;;;;6.00;3.65;;;;;;;27.14;51.88;100911.24;1309282;109;21140;-49
2022/06/12 04:54:25;;;;;;;3.30;3.10;;;;;;;27.24;52.01;100914.28;1310790;108;21243;-50
2022/06/12 04:56:54;;;;;;;7.60;3.30;;;;;;;27.33;52.00;100913.95;1315202;108;21302;-52
2022/06/12 04:59:21;;;;;;;4.00;3.08;;;;;;;27.43;51.93;100918.05;1310658;108;21769;-52
2022/06/12 05:01:48;;;;;;;4.55;3.30;;;;;;;27.51;51.54;100921.73;1293487;110;21222;-49
2022/06/12 05:04:16;;;;;;;6.42;3.45;;;;;;;27.62;51.55;100920.73;1348145;103;21231;-49
2022/06/12 05:06:44;;;;;;;3.98;3.58;;;;;;;27.69;51.88;100925.89;1390079;98;21581;-51
2022/06/12 05:09:13;;;;;;;8.05;3.30;;;;;;;27.78;51.99;100923.73;1494103;95;21067;-48
2022/06/12 05:11:41;;;;;;;5.15;3.47;;;;;;;27.88;51.82;100932.61;1488946;95;21132;-54
2022/06/12 05:14:08;;;;;;;3.77;2.92;;;;;;;28.00;51.77;100931.04;1495807;95;21110;-50
2022/06/12 05:16:51;;;;;;;3.50;3.20;;;;;;;28.14;51.66;100930.61;1513760;92;21084;-52
2022/06/12 05:19:22;;;;;;;6.75;2.80;;;;;;;28.32;51.63;100934.73;1553011;92;21079;-51
2022/06/12 05:21:49;;;;;;;3.23;2.97;;;;;;;28.76;48.14;100931.46;1576465;89;21082;-50
2022/06/12 05:24:16;;;;;;;4.37;2.60;;;;;;;28.76;48.14;100931.46;1613369;88;22287;-52
2022/06/12 05:26:45;;;;;;;4.87;2.87;;;;;;;29.02;46.24;100941.02;1620146;88;21094;-49
2022/06/12 05:29:26;;;;;;;5.25;2.60;;;;;;;29.25;45.12;100942.86;1700530;82;21506;-48
2022/06/12 05:31:54;;;;;;;2.62;2.42;;;;;;;29.48;44.06;100944.16;1718489;83;21088;-51
2022/06/12 05:34:22;;;;;;;4.80;3.00;;;;;;;29.72;43.52;100940.39;1723254;83;21049;-50
2022/06/12 05:36:48;;;;;;;2.72;2.35;;;;;;;29.92;42.99;100944.69;1722860;83;21059;-51
2022/06/12 05:39:15;;;;;;;2.95;2.75;;;;;;;30.07;42.15;100939.11;1723599;83;21044;-48
2022/06/12 05:41:44;;;;;;;5.45;2.50;;;;;;;30.20;41.68;100944.94;1723103;83;21566;-50
2022/06/12 05:44:14;;;;;;;5.00;2.77;;;;;;;30.30;41.24;100944.38;1723187;83;21009;-50
2022/06/12 05:46:41;;;;;;;3.17;2.30;;;;;;;30.40;41.18;100946.97;1679076;85;21030;-47
2022/06/12 05:49:08;;;;;;;3.92;2.42;;;;;;;30.42;40.77;100949.84;1683476;85;21016;-50
2022/06/12 05:51:36;;;;;;;4.37;3.30;;;;;;;30.48;40.79;100959.96;1682387;85;21158;-51
2022/06/12 05:54:03;;;;;;;2.90;2.47;;;;;;;30.54;43.44;100962.02;1682338;85;21104;-53
2022/06/12 05:56:31;;;;;;;2.95;2.42;;;;;;;30.58;43.69;100953.66;1683335;85;21107;-50
2022/06/12 05:58:59;;;;;;;5.87;2.40;;;;;;;30.66;42.10;100953.72;1694660;83;21204;-51
2022/06/12 06:01:26;;;;;;;3.00;2.70;;;;;;;30.78;40.93;100959.17;1707842;83;21098;-56
2022/06/12 06:03:54;;;;;;;5.45;3.02;;;;;;;30.92;41.90;100959.95;1706643;83;21006;-52
2022/06/12 06:06:31;;;;;;;3.35;3.05;;;;;;;31.01;42.69;100959.02;1705847;83;21061;-50
2022/06/12 06:08:58;;;;;;;3.05;2.80;;;;;;;31.06;43.08;100958.02;1697830;83;21054;-52
2022/06/12 06:11:25;;;;;;;5.65;2.87;;;;;;;31.09;43.33;100959.06;1686475;84;21499;-50
2022/06/12 06:13:52;;;;;;;3.62;3.15;;;;;;;31.12;43.50;100958.72;1687435;84;21070;-51
2022/06/12 06:16:19;;;;;;;4.42;3.52;;;;;;;31.18;43.04;100962.96;1689981;84;21542;-48
2022/06/12 06:18:46;;;;;;;3.75;3.00;;;;;;;31.21;42.92;100958.62;1687585;84;21077;-53
2022/06/12 06:21:15;;;;;;;6.03;3.55;;;;;;;31.25;42.72;100957.79;1688578;84;21093;-49
2022/06/12 06:23:43;;;;;;;4.95;3.15;;;;;;;31.29;42.90;100955.11;1688924;84;21046;-50
2022/06/12 06:26:10;;;;;;;3.47;3.15;;;;;;;31.41;43.01;100958.41;1692059;84;21582;-48
2022/06/12 06:28:37;;;;;;;3.92;3.30;;;;;;;31.55;42.49;100955.09;1687709;84;21097;-50
2022/06/12 06:31:06;;;;;;;3.40;3.10;;;;;;;31.55;43.32;100953.22;1688821;84;21539;-51
2022/06/12 06:33:33;;;;;;;3.67;2.62;;;;;;;31.58;43.96;100951.56;1688371;84;21054;-50
2022/06/12 06:36:00;;;;;;;5.87;3.65;;;;;;;31.58;43.88;100949.37;1688611;84;21043;-50
2022/06/12 06:38:27;;;;;;;4.95;3.08;;;;;;;31.55;43.70;100950.53;1687511;84;21214;-49
2022/06/12 06:40:54;;;;;;;7.25;3.40;;;;;;;31.54;43.83;100950.20;1695503;84;21124;-49
2022/06/12 06:43:21;;;;;;;3.85;3.12;;;;;;;31.53;44.30;100965.17;1726170;80;21463;-47
2022/06/12 06:48:33;;;;;;;5.15;2.17;;;;;;;31.41;44.68;100956.54;1781629;80;21022;-53
2022/06/12 06:51:01;;;;;;;2.72;2.33;;;;;;;31.38;40.22;100950.13;1768171;80;21035;-51
2022/06/12 06:53:28;;;;;;;4.87;3.02;;;;;;;31.38;40.81;100954.16;1780532;80;21026;-49
2022/06/12 06:55:55;;;;;;;3.17;2.80;;;;;;;31.36;41.69;100958.86;1769873;80;20987;-46
2022/06/12 06:58:24;;;;;;;4.42;2.90;;;;;;;31.35;42.12;100953.65;1771675;80;21010;-51
2022/06/12 07:00:51;;;;;;;7.03;2.20;;;;;;;31.30;41.72;100948.75;1770486;81;21031;-50
2022/06/12 07:03:18;;;;;;;2.12;1.90;;;;;;;31.31;39.64;100958.48;1767845;81;21483;-54
2022/06/12 07:05:46;;;;;;;2.85;1.70;;;;;;;31.38;38.24;100952.81;1767012;81;21050;-52
2022/06/12 07:08:13;;;;;;;2.33;1.80;;;;;;;31.53;37.41;100953.89;1763733;81;21006;-53
2022/06/12 07:10:41;;;;;;;3.47;2.12;;;;;;;31.71;36.81;100950.60;1778341;81;21031;-54
2022/06/12 07:13:08;;;;;;;5.10;2.10;;;;;;;31.88;36.20;100949.61;1764218;81;21542;-52
2022/06/12 07:15:37;;;;;;;4.25;2.12;;;;;;;32.00;35.72;100956.42;1761056;80;21015;-52
2022/06/12 07:18:05;;;;;;;2.77;1.95;;;;;;;32.11;35.30;100954.41;1774084;81;20995;-52
2022/06/12 07:20:37;;;;;;;5.78;2.50;;;;;;;32.21;34.91;100947.00;1762244;81;21553;-51
2022/06/12 07:23:04;;;;;;;;;;;;;;;32.32;34.82;100956.08;1765061;80;20999;-52
2022/06/12 07:25:33;;;;;;;2.87;2.08;;;;;;;32.49;34.50;100952.41;1765126;81;20136;-54
2022/06/12 07:27:59;;;;;;;4.70;1.92;;;;;;;32.74;34.69;100952.72;1765755;81;21061;-50
2022/06/12 07:30:27;;;;;;;3.52;2.25;;;;;;;32.99;34.29;100943.60;1758080;80;21024;-55
2022/06/12 07:32:54;;;;;;;9.33;2.12;;;;;;;33.18;33.68;100951.27;1764485;81;21539;-52
2022/06/12 07:35:20;;;;;;;3.92;2.00;;;;;;;33.34;33.69;100948.53;1764702;81;21031;-51
2022/06/12 07:37:48;;;;;;;4.78;1.92;;;;;;;33.44;33.56;100949.16;1767511;81;21067;-52
2022/06/12 07:40:20;;;;;;;4.60;1.90;;;;;;;33.50;33.34;100952.53;1772668;81;21031;-53
2022/06/12 07:42:48;;;;;;;9.63;2.22;;;;;;;33.54;32.46;100951.16;1741876;82;21046;-54
2022/06/12 07:45:15;;;;;;;1.82;1.67;;;;;;;33.54;32.10;100941.72;1741409;82;20995;-52
2022/06/12 07:47:42;;;;;;;2.15;1.80;;;;;;;33.53;31.63;100945.41;1723671;82;21023;-49
2022/06/12 07:50:09;;;;;;;3.33;1.98;;;;;;;33.53;31.64;100944.59;1741685;82;21527;-51
2022/06/12 07:52:39;;;;;;;2.77;2.25;;;;;;;33.49;31.36;100944.09;1742019;82;21562;-51
2022/06/12 07:55:07;;;;;;;4.37;2.58;;;;;;;33.50;31.36;100944.44;1741867;82;21538;-55
2022/06/12 07:57:34;;;;;;;3.10;1.98;;;;;;;33.51;31.34;100947.45;1741540;82;21566;-53
2022/06/12 08:00:01;;;;;;;2.15;1.95;;;;;;;33.51;31.24;100947.98;1741387;82;21091;-50
2022/06/12 08:02:28;;;;;;;3.30;1.90;;;;;;;33.52;31.01;100943.75;1741803;82;21093;-51
2022/06/12 08:04:55;;;;;;;3.02;1.90;;;;;;;33.52;30.77;100946.45;1742118;82;21074;-51
2022/06/12 08:07:22;;;;;;;2.30;2.10;;;;;;;33.54;30.71;100941.72;1724619;83;21082;-48
2022/06/12 08:09:49;;;;;;;1.85;1.75;;;;;;;33.57;30.64;100940.52;1733594;82;21519;-49
2022/06/12 08:12:16;;;;;;;3.70;2.10;;;;;;;33.58;29.87;100932.24;1733005;82;21031;-49
2022/06/12 08:14:43;;;;;;;4.17;1.92;;;;;;;33.60;29.91;100942.85;1731052;82;21003;-52
2022/06/12 08:17:10;;;;;;;4.35;2.10;;;;;;;33.63;29.97;100939.28;1741123;82;21003;-49
2022/06/12 08:22:24;;;;;;;2.55;2.30;;;;;;;33.72;29.49;100937.91;1664360;85;21219;-52
2022/06/12 08:24:50;;;;;;;4.33;2.30;;;;;;;33.75;29.11;100938.39;1742028;82;21039;-49
2022/06/12 08:27:17;;;;;;;3.85;2.00;;;;;;;33.77;28.92;100941.75;1742091;82;21582;-50
2022/06/12 08:29:44;;;;;;;3.92;2.25;;;;;;;33.80;29.13;100941.91;1742150;82;21026;-51
2022/06/12 08:32:16;;;;;;;1.98;1.72;;;;;;;33.84;28.80;100939.19;1742022;82;21114;-55
2022/06/12 08:34:51;;;;;;;3.27;1.90;;;;;;;33.89;28.53;100944.87;1732288;82;21022;-51
2022/06/12 08:37:23;;;;;;;2.40;2.30;;;;;;;33.95;28.92;100940.09;1728503;82;21023;-51
2022/06/12 08:39:50;;;;;;;3.85;2.47;;;;;;;33.99;29.70;100941.41;1579505;89;21082;-49
2022/06/12 08:42:24;;;;;;;3.50;2.87;;;;;;;34.05;30.70;100950.18;1603658;88;21605;-50
2022/06/12 08:45:24;;;;;;;6.00;3.15;;;;;;;34.09;31.84;100949.64;1609677;87;21059;-49
2022/06/12 08:48:07;;;;;;;3.92;3.45;;;;;;;34.11;32.65;100945.41;1613183;87;21043;-54
2022/06/12 08:50:52;;;;;;;6.92;3.60;;;;;;;34.08;32.71;100950.68;1608288;88;21076;-51
2022/06/12 08:53:45;;;;;;;5.55;4.22;;;;;;;34.03;32.30;100953.06;1583940;90;21080;-52
2022/06/12 08:56:19;;;;;;;7.65;4.15;;;;;;;34.01;31.79;100946.16;1580929;89;21081;-53
2022/06/12 08:58:56;;;;;;;4.08;3.60;;;;;;;34.01;31.21;100944.81;1578966;90;21085;-50
2022/06/12 09:01:23;;;;;;;3.95;2.92;;;;;;;34.00;29.78;100943.14;1509388;94;21140;-51
2022/06/12 09:03:53;;;;;;;6.08;3.17;;;;;;;34.00;29.17;100939.09;1487692;96;21076;-49
2022/06/12 09:06:50;;;;;;;6.28;2.90;;;;;;;34.05;28.00;100947.48;1494339;95;21090;-52
2022/06/12 09:09:27;;;;;;;4.00;2.90;;;;;;;34.08;27.35;100939.03;1512461;94;21103;-52
2022/06/12 09:12:09;;;;;;;6.37;3.58;;;;;;;34.14;26.53;100935.61;1491700;96;21095;-55
2022/06/12 09:15:11;;;;;;;13.22;9.68;;;;;;;34.17;26.35;100936.08;1456599;97;21101;-54
2022/06/12 09:18:18;;;;;;;7.37;5.28;;;;;;;34.25;26.76;100937.89;1470008;96;21145;-49
2022/06/12 09:21:05;;;;;;;5.60;4.58;;;;;;;34.35;26.89;100938.48;1430882;99;21134;-50
2022/06/12 09:23:53;;;;;;;6.85;6.22;;;;;;;34.44;27.75;100937.36;1445120;98;21101;-52
2022/06/12 09:27:02;;;;;;;7.05;5.00;;;;;;;34.50;27.54;100935.31;1442125;98;21593;-50
2022/06/12 09:29:43;;;;;;;6.15;5.08;;;;;;;34.58;27.50;100931.20;1458694;96;21180;-50
2022/06/12 09:32:20;;;;;;;;;;;;;;;34.66;27.73;100931.13;1494675;96;21642;-52
2022/06/12 09:34:59;;;;;;;5.08;4.33;;;;;;;34.71;27.51;100935.44;1492524;95;20466;-51
2022/06/12 09:40:53;;;;;;;5.78;4.45;;;;;;;34.75;26.14;100931.84;1492328;96;21114;-52
2022/06/12 09:43:36;;;;;;;9.30;7.90;;;;;;;34.76;26.57;100931.69;1478770;95;21098;-51
2022/06/12 09:46:24;;;;;;;8.10;5.70;;;;;;;34.76;26.89;100924.92;1496528;96;21118;-51
2022/06/12 09:49:28;;;;;;;7.58;5.17;;;;;;;34.76;27.50;100919.52;1496392;96;21655;-49
2022/06/12 09:52:15;;;;;;;7.50;5.00;;;;;;;34.79;27.64;100925.08;1459970;96;21170;-56
2022/06/12 09:55:14;;;;;;;5.67;4.75;;;;;;;34.80;27.44;100923.53;1494098;96;21131;-55
2022/06/12 09:58:11;;;;;;;7.17;4.92;;;;;;;34.81;27.47;100922.48;1506666;91;21158;-50
2022/06/12 10:00:54;;;;;;;11.20;5.35;;;;;;;34.85;27.29;100912.98;1557695;91;21138;-52
2022/06/12 10:03:33;;;;;;;6.25;4.50;;;;;;;34.88;27.42;100919.38;1569671;91;21658;-54
2022/06/12 10:08:55;;;;;;;7.45;5.05;;;;;;;34.91;27.62;100910.88;1508969;94;21173;-53
2022/06/12 10:11:30;;;;;;;;;;;;;;;34.92;27.83;100906.31;1511105;94;21141;-50
2022/06/12 10:14:09;;;;;;;6.78;4.92;;;;;;;34.90;27.90;100908.37;1509115;95;20411;-49
2022/06/12 10:16:41;;;;;;;6.05;4.80;;;;;;;34.89;27.89;100907.52;1509317;95;21105;-49
2022/06/12 10:19:16;;;;;;;6.92;5.12;;;;;;;34.90;27.96;100908.37;1509224;95;21077;-52
2022/06/12 10:21:47;;;;;;;5.20;4.45;;;;;;;34.92;28.04;100897.70;1479532;97;21126;-53
2022/06/12 10:24:13;;;;;;;8.30;5.27;;;;;;;34.92;27.87;100895.50;1475386;96;21089;-53
2022/06/12 10:26:40;;;;;;;5.87;5.03;;;;;;;34.93;27.99;100880.97;1479515;97;21063;-50
2022/06/12 10:29:13;;;;;;;6.67;4.72;;;;;;;34.96;27.94;100888.19;1478431;97;21098;-51
2022/06/12 10:31:56;;;;;;;7.97;5.25;;;;;;;34.96;27.93;100884.13;1479459;97;21107;-56
2022/06/12 10:34:28;;;;;;;8.08;4.65;;;;;;;34.93;27.88;100883.14;1492262;96;21142;-52
2022/06/12 10:37:11;;;;;;;5.80;4.95;;;;;;;34.92;27.74;100873.36;1492217;96;21070;-54
2022/06/12 10:39:40;;;;;;;5.87;4.80;;;;;;;34.93;27.59;100874.21;1431252;100;21107;-49
2022/06/12 10:42:10;;;;;;;5.67;4.20;;;;;;;34.94;27.93;100878.08;1438595;100;21084;-50
2022/06/12 10:44:56;;;;;;;6.85;4.87;;;;;;;34.94;27.59;100868.61;1436145;100;21175;-51
2022/06/12 10:47:31;;;;;;;5.37;4.80;;;;;;;34.98;27.59;100871.30;1507068;94;21105;-52
2022/06/12 10:50:21;;;;;;;9.73;4.92;;;;;;;35.02;27.77;100869.04;1476753;97;21111;-53
2022/06/12 10:53:05;;;;;;;7.37;4.35;;;;;;;35.05;27.48;100870.87;1531586;93;21042;-53
2022/06/12 10:55:41;;;;;;;5.97;4.25;;;;;;;35.05;27.42;100870.87;1492342;95;21121;-50
2022/06/12 10:58:28;;;;;;;6.55;5.05;;;;;;;35.08;27.27;100861.02;1491885;95;21166;-53
2022/06/12 11:00:58;;;;;;;8.68;4.55;;;;;;;35.11;27.21;100857.95;1503811;94;21163;-53
2022/06/12 11:03:42;;;;;;;4.75;4.33;;;;;;;35.14;27.42;100860.26;1481143;96;21136;-51
2022/06/12 11:06:25;;;;;;;5.92;4.60;;;;;;;35.15;27.63;100860.59;1454123;98;21141;-52
2022/06/12 11:08:57;;;;;;;5.15;4.58;;;;;;;35.19;27.09;100849.72;1431955;99;21126;-49
2022/06/12 11:12:12;;;;;;;6.33;4.85;;;;;;;35.24;26.79;100851.02;1446186;96;21120;-57
2022/06/12 11:14:48;;;;;;;6.20;4.72;;;;;;;35.29;26.76;100851.27;1451464;98;21116;-50
2022/06/12 11:17:54;;;;;;;5.40;4.58;;;;;;;35.35;26.80;100849.99;1415584;101;21652;-52
2022/06/12 11:20:40;;;;;;;6.03;4.45;;;;;;;35.39;26.63;100849.94;1410706;101;21174;-51
2022/06/12 11:23:46;;;;;;;5.92;4.78;;;;;;;35.44;26.71;100843.95;1411105;100;21149;-51
2022/06/12 11:26:39;;;;;;;6.60;4.55;;;;;;;35.47;27.26;100843.61;1426737;98;21613;-52
2022/06/12 11:29:34;;;;;;;7.65;4.60;;;;;;;35.52;27.60;100841.16;1441167;98;21170;-50
2022/06/12 11:32:12;;;;;;;8.48;4.67;;;;;;;35.59;27.56;100842.07;1440028;98;21603;-50
2022/06/12 11:34:53;;;;;;;8.88;5.28;;;;;;;35.64;28.30;100836.90;1439781;98;21648;-51
2022/06/12 11:37:30;;;;;;;7.95;4.87;;;;;;;35.68;28.56;100838.19;1411141;101;21260;-53
2022/06/12 11:40:03;;;;;;;8.35;5.25;;;;;;;35.67;28.87;100831.96;1404997;102;21665;-52
2022/06/12 11:43:14;;;;;;;7.08;5.03;;;;;;;35.66;29.21;100834.33;1407617;102;21111;-50
2022/06/12 11:46:05;;;;;;;7.95;4.70;;;;;;;35.62;29.44;100833.04;1401416;100;21156;-50
2022/06/12 11:49:29;;;;;;;5.97;4.67;;;;;;;35.69;29.41;100828.55;1425946;100;21103;-50
2022/06/12 11:52:13;;;;;;;6.97;4.53;;;;;;;35.67;29.56;100831.96;1421251;100;21142;-53
2022/06/12 11:55:13;;;;;;;10.00;5.30;;;;;;;35.66;28.68;100821.30;1424502;100;21169;-50
2022/06/12 11:57:52;;;;;;;5.47;4.87;;;;;;;35.67;28.39;100825.19;1411100;100;21133;-49
2022/06/12 12:00:23;;;;;;;7.00;4.70;;;;;;;35.65;27.66;100827.77;1424612;99;21180;-52
2022/06/12 12:03:42;;;;;;;7.35;4.70;;;;;;;35.62;27.04;100820.02;1451424;96;21108;-56
2022/06/12 12:06:41;;;;;;;5.47;4.97;;;;;;;35.61;26.92;100821.06;1490934;94;22204;-52
2022/06/12 12:09:29;;;;;;;5.28;4.40;;;;;;;35.54;27.02;100813.37;1498614;95;21098;-53
2022/06/12 12:12:05;;;;;;;5.00;4.12;;;;;;;35.50;26.01;100808.03;1494181;95;21275;-51
2022/06/12 12:14:35;;;;;;;5.17;4.40;;;;;;;35.50;25.50;100806.17;1518554;92;21093;-53
2022/06/12 12:17:27;;;;;;;5.87;4.60;;;;;;;35.53;25.30;100796.83;1570757;91;21041;-52
2022/06/12 12:20:06;;;;;;;6.37;5.45;;;;;;;35.56;25.06;100797.78;1570474;91;21106;-50
2022/06/12 12:22:57;;;;;;;9.55;6.17;;;;;;;35.61;25.04;100796.70;1568965;91;21057;-52
2022/06/12 12:25:42;;;;;;;7.00;4.92;;;;;;;35.65;25.02;100787.16;1570860;91;21057;-53